createdAt,value
2018-11-21T00:00:35.058Z,24.20
2018-11-21T00:01:38.357Z,22.93
2018-11-21T00:02:41.653Z,23.40
2018-11-21T00:03:44.949Z,22.95
2018-11-21T00:04:48.260Z,22.75
2018-11-21T00:05:51.607Z,25.35
2018-11-21T00:06:54.905Z,23.00
2018-11-21T00:07:58.202Z,24.92
2018-11-21T00:09:01.899Z,23.35
2018-11-21T00:10:08.262Z,22.80
2018-11-21T00:11:11.562Z,22.85
2018-11-21T00:12:14.904Z,22.20
2018-11-21T00:13:18.210Z,23.80
2018-11-21T00:14:21.518Z,23.02
2018-11-21T00:15:24.860Z,22.48
2018-11-21T00:16:28.163Z,23.32
2018-11-21T00:17:31.519Z,24.30
2018-11-21T00:18:35.204Z,22.93
2018-11-21T00:19:38.506Z,22.67
2018-11-21T00:20:41.885Z,23.65
2018-11-21T00:21:45.222Z,25.02
2018-11-21T00:22:48.573Z,22.80
2018-11-21T00:23:51.895Z,23.75
2018-11-21T00:24:55.199Z,23.75
2018-11-21T00:25:58.545Z,24.63
2018-11-21T00:27:01.869Z,24.92
2018-11-21T00:28:05.514Z,24.43
2018-11-21T00:29:08.840Z,24.30
2018-11-21T00:30:13.729Z,26.37
2018-11-21T00:31:17.072Z,26.68
2018-11-21T00:32:21.827Z,24.35
2018-11-21T00:33:25.129Z,24.47
2018-11-21T00:34:28.465Z,24.07
2018-11-21T00:35:31.785Z,24.57
2018-11-21T00:36:35.156Z,25.90
2018-11-21T00:37:38.597Z,26.30
2018-11-21T00:38:41.909Z,25.55
2018-11-21T00:39:45.219Z,25.43
2018-11-21T00:40:48.527Z,23.70
2018-11-21T00:41:51.861Z,24.40
2018-11-21T00:42:55.175Z,25.27
2018-11-21T00:43:58.935Z,24.60
2018-11-21T00:45:02.292Z,24.18
2018-11-21T00:46:05.943Z,25.12
2018-11-21T00:47:09.701Z,24.20
2018-11-21T00:48:13.150Z,24.23
2018-11-21T00:49:16.448Z,25.68
2018-11-21T00:50:19.793Z,24.85
2018-11-21T00:51:23.103Z,24.32
2018-11-21T00:52:26.406Z,23.60
2018-11-21T00:53:29.859Z,25.27
2018-11-21T00:54:33.169Z,24.50
2018-11-21T00:55:36.525Z,23.90
2018-11-21T00:56:39.832Z,24.02
2018-11-21T00:57:43.136Z,25.02
2018-11-21T00:58:46.449Z,23.25
2018-11-21T00:59:49.757Z,25.00
2018-11-21T01:00:53.093Z,23.98
2018-11-21T01:01:56.407Z,25.27
2018-11-21T01:03:00.154Z,24.47
2018-11-21T01:04:03.887Z,25.70
2018-11-21T01:05:07.516Z,23.42
2018-11-21T01:06:10.884Z,25.35
2018-11-21T01:07:14.199Z,25.40
2018-11-21T01:08:17.506Z,23.40
2018-11-21T01:09:20.809Z,25.50
2018-11-21T01:10:24.156Z,23.90
2018-11-21T01:11:27.488Z,24.20
2018-11-21T01:12:30.802Z,25.60
2018-11-21T01:13:34.140Z,24.85
2018-11-21T01:14:37.480Z,21.52
2018-11-21T01:15:40.848Z,23.90
2018-11-21T01:16:44.155Z,24.15
2018-11-21T01:17:47.457Z,24.75
2018-11-21T01:18:50.829Z,24.67
2018-11-21T01:19:54.128Z,24.70
2018-11-21T01:20:57.444Z,24.60
2018-11-21T01:22:00.748Z,24.15
2018-11-21T01:23:04.098Z,23.90
2018-11-21T01:24:07.409Z,24.87
2018-11-21T01:25:10.755Z,24.77
2018-11-21T01:26:14.138Z,24.05
2018-11-21T01:27:17.448Z,22.87
2018-11-21T01:28:20.775Z,23.45
2018-11-21T01:29:24.084Z,24.32
2018-11-21T01:30:27.385Z,22.42
2018-11-21T01:31:31.068Z,24.77
2018-11-21T01:32:34.771Z,23.15
2018-11-21T01:33:38.087Z,24.67
2018-11-21T01:34:41.395Z,24.65
2018-11-21T01:35:44.708Z,24.10
2018-11-21T01:36:48.082Z,24.57
2018-11-21T01:37:51.414Z,23.87
2018-11-21T01:38:54.712Z,22.62
2018-11-21T01:39:58.034Z,24.95
2018-11-21T01:41:01.336Z,23.67
2018-11-21T01:42:05.030Z,23.55
2018-11-21T01:43:08.339Z,23.32
2018-11-21T01:44:11.658Z,22.58
2018-11-21T01:45:15.007Z,22.42
2018-11-21T01:46:18.305Z,22.90
2018-11-21T01:47:21.638Z,23.32
2018-11-21T01:48:24.984Z,24.18
2018-11-21T01:49:28.302Z,22.90
2018-11-21T01:50:31.604Z,26.05
2018-11-21T01:51:34.937Z,24.40
2018-11-21T01:52:38.268Z,24.92
2018-11-21T01:53:41.632Z,23.40
2018-11-21T01:54:44.949Z,24.25
2018-11-21T01:55:48.251Z,22.22
2018-11-21T01:56:52.033Z,23.42
2018-11-21T01:57:55.386Z,22.58
2018-11-21T01:58:58.691Z,24.15
2018-11-21T02:00:02.009Z,21.85
2018-11-21T02:01:05.356Z,20.95
2018-11-21T02:02:08.664Z,21.85
2018-11-21T02:03:11.983Z,21.52
2018-11-21T02:04:15.296Z,22.20
2018-11-21T02:05:18.601Z,22.60
2018-11-21T02:06:21.947Z,22.73
2018-11-21T02:07:25.297Z,21.57
2018-11-21T02:08:28.607Z,22.10
2018-11-21T02:09:31.917Z,22.45
2018-11-21T02:10:35.232Z,20.95
2018-11-21T02:11:38.633Z,21.48
2018-11-21T02:12:41.962Z,21.93
2018-11-21T02:13:45.272Z,23.00
2018-11-21T02:14:48.988Z,23.07
2018-11-21T02:15:52.330Z,21.57
2018-11-21T02:16:55.688Z,22.75
2018-11-21T02:17:59.005Z,21.68
2018-11-21T02:19:02.314Z,23.47
2018-11-21T02:20:07.252Z,21.75
2018-11-21T02:21:10.664Z,21.93
2018-11-21T02:22:13.984Z,22.30
2018-11-21T02:23:17.723Z,22.37
2018-11-21T02:24:21.066Z,22.45
2018-11-21T02:25:24.421Z,20.37
2018-11-21T02:26:27.849Z,21.60
2018-11-21T02:27:31.221Z,22.15
2018-11-21T02:28:34.533Z,22.65
2018-11-21T02:29:37.849Z,21.90
2018-11-21T02:30:41.609Z,22.60
2018-11-21T02:31:45.321Z,22.07
2018-11-21T02:32:48.665Z,21.97
2018-11-21T02:33:51.984Z,21.00
2018-11-21T02:34:55.337Z,21.23
2018-11-21T02:35:58.650Z,21.27
2018-11-21T02:37:02.068Z,19.92
2018-11-21T02:38:05.397Z,19.70
2018-11-21T02:39:09.936Z,21.15
2018-11-21T02:40:13.235Z,21.82
2018-11-21T02:41:16.577Z,21.50
2018-11-21T02:42:19.884Z,21.82
2018-11-21T02:43:23.176Z,22.90
2018-11-21T02:44:26.492Z,22.37
2018-11-21T02:45:30.191Z,23.07
2018-11-21T02:46:33.800Z,22.50
2018-11-21T02:47:37.100Z,22.17
2018-11-21T02:48:40.410Z,23.02
2018-11-21T02:49:43.733Z,23.73
2018-11-21T02:50:47.091Z,23.38
2018-11-21T02:51:50.463Z,22.50
2018-11-21T02:52:53.836Z,22.87
2018-11-21T02:53:57.164Z,21.27
2018-11-21T02:55:00.503Z,22.10
2018-11-21T02:56:03.854Z,23.00
2018-11-21T02:57:21.896Z,21.10
2018-11-21T02:58:25.209Z,23.32
2018-11-21T02:59:28.557Z,23.60
2018-11-21T03:00:31.917Z,23.12
2018-11-21T03:01:35.173Z,22.15
2018-11-21T03:02:38.921Z,23.50
2018-11-21T03:03:42.236Z,23.07
2018-11-21T03:04:45.540Z,23.80
2018-11-21T03:05:48.841Z,24.12
2018-11-21T03:06:52.213Z,22.58
2018-11-21T03:07:56.818Z,23.00
2018-11-21T03:09:00.142Z,20.68
2018-11-21T03:10:03.453Z,21.57
2018-11-21T03:11:06.756Z,22.40
2018-11-21T03:12:10.393Z,22.22
2018-11-21T03:13:13.701Z,22.37
2018-11-21T03:14:17.001Z,23.15
2018-11-21T03:15:20.767Z,25.45
2018-11-21T03:16:24.084Z,23.47
2018-11-21T03:17:27.448Z,25.05
2018-11-21T03:18:30.832Z,25.15
2018-11-21T03:19:34.255Z,23.40
2018-11-21T03:20:37.603Z,25.10
2018-11-21T03:21:41.013Z,24.57
2018-11-21T03:22:44.338Z,24.60
2018-11-21T03:23:47.645Z,25.48
2018-11-21T03:24:50.997Z,23.95
2018-11-21T03:25:54.345Z,23.87
2018-11-21T03:26:57.655Z,24.67
2018-11-21T03:28:00.964Z,25.70
2018-11-21T03:29:04.273Z,24.20
2018-11-21T03:30:09.124Z,24.82
2018-11-21T03:31:12.468Z,24.77
2018-11-21T03:32:16.157Z,25.25
2018-11-21T03:33:19.468Z,23.05
2018-11-21T03:34:22.774Z,24.50
2018-11-21T03:35:26.081Z,27.15
2018-11-21T03:36:29.444Z,25.30
2018-11-21T03:37:32.751Z,26.45
2018-11-21T03:38:36.065Z,24.43
2018-11-21T03:39:39.366Z,23.83
2018-11-21T03:40:42.684Z,24.92
2018-11-21T03:41:46.458Z,23.62
2018-11-21T03:42:49.782Z,24.02
2018-11-21T03:43:53.072Z,23.92
2018-11-21T03:44:56.666Z,22.35
2018-11-21T03:45:59.964Z,22.77
2018-11-21T03:47:03.320Z,23.70
2018-11-21T03:48:06.631Z,24.67
2018-11-21T03:49:10.288Z,24.15
2018-11-21T03:50:13.598Z,22.95
2018-11-21T03:51:16.941Z,23.92
2018-11-21T03:52:20.320Z,24.57
2018-11-21T03:53:23.627Z,25.40
2018-11-21T03:54:26.940Z,24.27
2018-11-21T03:55:30.253Z,23.75
2018-11-21T03:56:33.772Z,23.30
2018-11-21T03:57:37.389Z,25.68
2018-11-21T03:58:40.722Z,23.40
2018-11-21T03:59:44.023Z,23.87
2018-11-21T04:00:47.373Z,23.15
2018-11-21T04:01:50.670Z,24.05
2018-11-21T04:02:55.004Z,23.05
2018-11-21T04:03:58.305Z,24.07
2018-11-21T04:05:01.601Z,25.77
2018-11-21T04:06:05.009Z,24.77
2018-11-21T04:07:08.317Z,23.42
2018-11-21T04:08:11.664Z,23.02
2018-11-21T04:09:14.973Z,24.32
2018-11-21T04:10:18.274Z,24.20
2018-11-21T04:11:21.956Z,25.12
2018-11-21T04:12:25.277Z,23.30
2018-11-21T04:13:28.956Z,23.80
2018-11-21T04:14:32.264Z,23.65
2018-11-21T04:15:35.579Z,24.40
2018-11-21T04:16:38.893Z,24.50
2018-11-21T04:17:42.209Z,22.13
2018-11-21T04:18:49.728Z,23.07
2018-11-21T04:19:53.031Z,22.60
2018-11-21T04:20:56.335Z,25.48
2018-11-21T04:21:59.661Z,23.52
2018-11-21T04:23:03.041Z,23.65
2018-11-21T04:24:06.516Z,23.62
2018-11-21T04:25:11.379Z,25.17
2018-11-21T04:26:15.447Z,26.10
2018-11-21T04:27:18.791Z,21.93
2018-11-21T04:28:22.108Z,25.45
2018-11-21T04:29:25.451Z,23.05
2018-11-21T04:30:28.768Z,23.65
2018-11-21T04:31:32.080Z,24.07
2018-11-21T04:32:35.395Z,24.75
2018-11-21T04:33:38.701Z,21.70
2018-11-21T04:34:42.053Z,21.95
2018-11-21T04:35:45.369Z,23.20
2018-11-21T04:36:48.673Z,22.85
2018-11-21T04:37:52.006Z,24.85
2018-11-21T04:39:59.153Z,23.07
2018-11-21T04:41:02.452Z,23.57
2018-11-21T04:42:06.021Z,22.15
2018-11-21T04:43:09.320Z,22.80
2018-11-21T04:44:13.079Z,24.98
2018-11-21T04:45:16.400Z,21.60
2018-11-21T04:46:19.775Z,22.10
2018-11-21T04:47:23.080Z,20.30
2018-11-21T04:48:26.383Z,22.65
2018-11-21T04:49:29.809Z,21.57
2018-11-21T04:50:33.151Z,22.13
2018-11-21T04:51:36.462Z,21.68
2018-11-21T04:52:39.860Z,23.02
2018-11-21T04:53:43.174Z,21.93
2018-11-21T04:54:46.536Z,22.75
2018-11-21T04:55:49.882Z,22.15
2018-11-21T04:56:53.187Z,23.20
2018-11-21T04:57:56.496Z,21.70
2018-11-21T04:58:59.808Z,21.35
2018-11-21T05:00:03.174Z,23.07
2018-11-21T05:01:06.499Z,24.25
2018-11-21T05:02:09.822Z,23.10
2018-11-21T05:03:13.341Z,23.77
2018-11-21T05:04:16.653Z,21.60
2018-11-21T05:05:19.993Z,21.33
2018-11-21T05:06:23.304Z,23.30
2018-11-21T05:07:26.624Z,22.58
2018-11-21T05:08:29.985Z,22.60
2018-11-21T05:09:33.292Z,21.10
2018-11-21T05:10:36.605Z,21.60
2018-11-21T05:11:39.976Z,21.10
2018-11-21T05:12:43.292Z,22.48
2018-11-21T05:13:46.607Z,23.55
2018-11-21T05:14:49.920Z,20.57
2018-11-21T05:15:53.223Z,21.75
2018-11-21T05:16:56.583Z,22.15
2018-11-21T05:17:59.899Z,22.58
2018-11-21T05:19:03.207Z,21.30
2018-11-21T05:20:06.561Z,22.65
2018-11-21T05:21:09.867Z,22.05
2018-11-21T05:22:13.218Z,21.05
2018-11-21T05:23:16.522Z,19.40
2018-11-21T05:24:19.842Z,22.17
2018-11-21T05:25:23.192Z,23.80
2018-11-21T05:26:26.505Z,30.95
2018-11-21T05:27:29.846Z,22.62
2018-11-21T05:28:33.204Z,22.77
2018-11-21T05:29:36.540Z,21.87
2018-11-21T05:30:39.858Z,23.30
2018-11-21T05:31:43.167Z,21.50
2018-11-21T05:32:46.513Z,21.73
2018-11-21T05:33:49.839Z,20.40
2018-11-21T05:34:53.172Z,21.57
2018-11-21T05:35:56.481Z,20.75
2018-11-21T05:36:59.832Z,21.33
2018-11-21T05:38:03.207Z,21.10
2018-11-21T05:39:09.552Z,22.50
2018-11-21T05:40:12.863Z,21.37
2018-11-21T05:41:16.177Z,20.60
2018-11-21T05:42:19.504Z,21.52
2018-11-21T05:43:22.840Z,19.10
2018-11-21T05:44:31.233Z,22.05
2018-11-21T05:45:29.486Z,21.40
2018-11-21T05:46:32.828Z,22.70
2018-11-21T05:47:36.153Z,21.68
2018-11-21T05:48:39.462Z,22.07
2018-11-21T05:49:42.798Z,20.82
2018-11-21T05:50:46.100Z,24.40
2018-11-21T05:51:49.460Z,20.43
2018-11-21T05:52:52.761Z,22.82
2018-11-21T05:53:56.096Z,19.42
2018-11-21T05:54:59.416Z,22.25
2018-11-21T05:56:02.732Z,20.95
2018-11-21T05:57:06.050Z,21.45
2018-11-21T05:58:09.825Z,19.90
2018-11-21T05:59:13.156Z,18.57
2018-11-21T06:00:16.465Z,19.90
2018-11-21T06:01:20.161Z,22.25
2018-11-21T06:02:23.503Z,20.43
2018-11-21T06:03:26.806Z,19.60
2018-11-21T06:04:30.105Z,19.82
2018-11-21T06:05:33.450Z,20.40
2018-11-21T06:06:36.753Z,20.10
2018-11-21T06:07:40.301Z,20.40
2018-11-21T06:08:43.669Z,21.70
2018-11-21T06:09:46.969Z,22.00
2018-11-21T06:10:50.724Z,21.48
2018-11-21T06:11:54.042Z,21.30
2018-11-21T06:12:57.363Z,22.42
2018-11-21T06:14:01.242Z,21.05
2018-11-21T06:15:05.076Z,21.85
2018-11-21T06:16:08.391Z,21.05
2018-11-21T06:17:11.801Z,21.87
2018-11-21T06:18:15.139Z,22.13
2018-11-21T06:19:18.483Z,21.10
2018-11-21T06:20:22.220Z,21.50
2018-11-21T06:21:25.526Z,21.20
2018-11-21T06:22:29.204Z,21.40
2018-11-21T06:23:32.906Z,21.33
2018-11-21T06:24:36.263Z,22.40
2018-11-21T06:25:40.006Z,22.10
2018-11-21T06:26:43.355Z,20.43
2018-11-21T06:27:46.731Z,20.80
2018-11-21T06:28:50.130Z,20.90
2018-11-21T06:29:53.449Z,21.80
2018-11-21T06:30:56.748Z,21.85
2018-11-21T06:32:00.070Z,22.58
2018-11-21T06:33:03.410Z,22.70
2018-11-21T06:34:07.725Z,23.87
2018-11-21T06:35:11.388Z,22.13
2018-11-21T06:36:14.677Z,21.80
2018-11-21T06:37:18.385Z,22.22
2018-11-21T06:38:21.687Z,22.95
2018-11-21T06:39:24.997Z,21.55
2018-11-21T06:40:28.317Z,20.62
2018-11-21T06:41:31.639Z,21.50
2018-11-21T06:42:34.986Z,21.48
2018-11-21T06:43:38.307Z,21.02
2018-11-21T06:44:41.640Z,22.22
2018-11-21T06:45:44.947Z,22.27
2018-11-21T06:46:48.295Z,21.02
2018-11-21T06:47:51.905Z,23.20
2018-11-21T06:48:55.201Z,24.02
2018-11-21T06:49:58.527Z,21.97
2018-11-21T06:51:01.881Z,22.77
2018-11-21T06:52:05.203Z,23.90
2018-11-21T06:53:08.506Z,22.75
2018-11-21T06:54:13.386Z,21.77
2018-11-21T06:55:16.681Z,23.35
2018-11-21T06:56:20.037Z,23.57
2018-11-21T06:57:23.341Z,22.85
2018-11-21T06:58:26.653Z,21.80
2018-11-21T06:59:29.946Z,23.45
2018-11-21T07:00:33.255Z,24.87
2018-11-21T07:01:37.057Z,23.47
2018-11-21T07:02:40.992Z,22.13
2018-11-21T07:03:44.731Z,22.77
2018-11-21T07:04:48.044Z,21.73
2018-11-21T07:05:51.350Z,23.15
2018-11-21T07:06:54.693Z,23.25
2018-11-21T07:08:01.408Z,23.30
2018-11-21T07:09:08.576Z,22.30
2018-11-21T07:10:15.650Z,23.20
2018-11-21T07:11:18.957Z,23.25
2018-11-21T07:12:22.409Z,24.92
2018-11-21T07:13:25.778Z,24.25
2018-11-21T07:14:29.090Z,24.50
2018-11-21T07:15:32.389Z,23.30
2018-11-21T07:16:36.596Z,23.73
2018-11-21T07:17:39.915Z,22.98
2018-11-21T07:18:43.501Z,22.75
2018-11-21T07:19:46.802Z,22.22
2018-11-21T07:20:50.103Z,24.60
2018-11-21T07:21:53.414Z,23.65
2018-11-21T07:22:56.710Z,24.07
2018-11-21T07:24:00.108Z,24.30
2018-11-21T07:25:04.401Z,24.77
2018-11-21T07:26:07.785Z,26.20
2018-11-21T07:27:11.088Z,24.07
2018-11-21T07:28:14.421Z,21.85
2018-11-21T07:29:17.793Z,23.92
2018-11-21T07:30:21.178Z,25.65
2018-11-21T07:31:24.486Z,25.80
2018-11-21T07:32:28.805Z,26.65
2018-11-21T07:33:32.114Z,23.57
2018-11-21T07:34:35.449Z,23.50
2018-11-21T07:35:38.808Z,25.00
2018-11-21T07:36:47.684Z,24.50
2018-11-21T07:37:51.000Z,23.92
2018-11-21T07:38:54.370Z,25.75
2018-11-21T07:39:57.672Z,26.17
2018-11-21T07:41:01.057Z,26.35
2018-11-21T07:42:04.356Z,27.32
2018-11-21T07:43:07.670Z,25.17
2018-11-21T07:44:11.084Z,26.35
2018-11-21T07:45:15.272Z,25.97
2018-11-21T07:46:18.619Z,25.70
2018-11-21T07:47:26.560Z,24.45
2018-11-21T07:48:25.235Z,26.17
2018-11-21T07:49:28.581Z,26.33
2018-11-21T07:50:31.888Z,25.55
2018-11-21T07:51:35.381Z,25.95
2018-11-21T07:52:38.733Z,28.62
2018-11-21T07:53:42.037Z,26.85
2018-11-21T07:54:45.352Z,26.90
2018-11-21T07:55:48.679Z,25.75
2018-11-21T07:57:31.840Z,25.70
2018-11-21T07:58:35.194Z,26.40
2018-11-21T07:59:38.880Z,27.07
2018-11-21T08:01:20.603Z,26.90
2018-11-21T08:02:30.238Z,25.60
2018-11-21T08:03:35.503Z,25.97
2018-11-21T08:04:58.041Z,28.98
2018-11-21T08:06:10.303Z,25.00
2018-11-21T08:07:24.124Z,24.92
2018-11-21T08:08:55.286Z,26.50
2018-11-21T08:10:23.555Z,24.30
2018-11-21T08:11:49.051Z,24.50
2018-11-21T08:13:15.892Z,25.65
2018-11-21T08:14:56.408Z,25.62
2018-11-21T08:16:21.745Z,27.00
2018-11-21T08:17:42.993Z,26.80
2018-11-21T08:19:24.037Z,24.98
2018-11-21T08:20:56.295Z,25.62
2018-11-21T08:22:21.790Z,25.37
2018-11-21T08:23:42.849Z,25.85
2018-11-21T08:25:11.517Z,26.55
2018-11-21T08:26:33.068Z,25.70
2018-11-21T08:27:49.912Z,24.98
2018-11-21T08:28:53.212Z,24.10
2018-11-21T08:29:56.518Z,26.30
2018-11-21T08:30:59.967Z,27.27
2018-11-21T08:32:03.276Z,26.57
2018-11-21T08:33:06.608Z,28.35
2018-11-21T08:34:09.972Z,27.48
2018-11-21T08:35:13.273Z,26.07
2018-11-21T08:36:16.592Z,26.62
2018-11-21T08:37:19.903Z,28.17
2018-11-21T08:38:23.709Z,28.62
2018-11-21T08:39:27.062Z,28.17
2018-11-21T08:40:30.409Z,29.12
2018-11-21T08:41:33.728Z,28.42
2018-11-21T08:42:37.042Z,27.13
2018-11-21T08:43:40.355Z,28.30
2018-11-21T08:44:43.689Z,26.65
2018-11-21T08:45:47.084Z,25.90
2018-11-21T08:46:50.423Z,27.95
2018-11-21T08:47:53.757Z,28.40
2018-11-21T08:48:57.066Z,28.07
2018-11-21T08:50:00.401Z,26.05
2018-11-21T08:51:03.756Z,25.12
2018-11-21T08:52:07.109Z,25.50
2018-11-21T08:53:10.823Z,26.05
2018-11-21T08:54:14.133Z,26.33
2018-11-21T08:55:17.440Z,25.50
2018-11-21T08:56:20.880Z,25.75
2018-11-21T08:57:24.187Z,27.10
2018-11-21T08:58:27.499Z,25.70
2018-11-21T08:59:30.805Z,25.80
2018-11-21T09:00:34.334Z,27.15
2018-11-21T09:01:37.681Z,26.02
2018-11-21T09:02:40.995Z,27.00
2018-11-21T09:03:44.318Z,27.80
2018-11-21T09:04:47.627Z,26.12
2018-11-21T09:05:50.940Z,25.88
2018-11-21T09:06:54.298Z,27.00
2018-11-21T09:07:57.610Z,25.10
2018-11-21T09:09:01.252Z,26.62
2018-11-21T09:10:06.129Z,27.17
2018-11-21T09:11:09.474Z,26.52
2018-11-21T09:12:15.415Z,25.88
2018-11-21T09:13:17.137Z,27.93
2018-11-21T09:14:20.509Z,26.50
2018-11-21T09:15:24.114Z,26.60
2018-11-21T09:16:27.436Z,28.30
2018-11-21T09:17:30.782Z,27.00
2018-11-21T09:18:34.088Z,26.80
2018-11-21T09:19:37.453Z,25.48
2018-11-21T09:20:40.773Z,26.52
2018-11-21T09:21:44.080Z,26.68
2018-11-21T09:22:47.387Z,26.65
2018-11-21T09:23:50.698Z,28.87
2018-11-21T09:24:54.084Z,25.62
2018-11-21T09:25:57.788Z,25.12
2018-11-21T09:27:01.124Z,26.45
2018-11-21T09:28:04.436Z,25.25
2018-11-21T09:29:07.751Z,27.02
2018-11-21T09:30:13.560Z,25.55
2018-11-21T09:31:16.861Z,24.20
2018-11-21T09:32:20.216Z,24.92
2018-11-21T09:33:23.524Z,25.37
2018-11-21T09:34:26.830Z,24.50
2018-11-21T09:35:30.513Z,25.70
2018-11-21T09:36:33.836Z,25.45
2018-11-21T09:37:37.146Z,25.52
2018-11-21T09:38:40.440Z,26.25
2018-11-21T09:39:43.749Z,25.65
2018-11-21T09:40:47.109Z,24.67
2018-11-21T09:41:50.832Z,23.55
2018-11-21T09:42:55.409Z,27.22
2018-11-21T09:43:58.696Z,25.30
2018-11-21T09:45:02.012Z,25.30
2018-11-21T09:46:05.454Z,25.85
2018-11-21T09:47:08.776Z,26.93
2018-11-21T09:48:12.096Z,25.48
2018-11-21T09:49:15.402Z,24.18
2018-11-21T09:50:20.759Z,23.98
2018-11-21T09:51:24.114Z,23.22
2018-11-21T09:52:27.410Z,25.23
2018-11-21T09:53:30.710Z,25.23
2018-11-21T09:54:34.015Z,24.52
2018-11-21T09:55:40.391Z,25.70
2018-11-21T09:56:40.677Z,23.75
2018-11-21T09:57:43.983Z,24.65
2018-11-21T09:58:47.681Z,24.75
2018-11-21T09:59:51.040Z,25.12
2018-11-21T10:01:31.338Z,26.42
2018-11-21T10:03:04.556Z,24.02
2018-11-21T10:04:07.857Z,21.57
2018-11-21T10:05:11.162Z,24.98
2018-11-21T10:06:19.713Z,24.47
2018-11-21T10:07:23.012Z,25.02
2018-11-21T10:08:39.651Z,24.27
2018-11-21T10:09:45.111Z,23.95
2018-11-21T10:10:48.410Z,23.00
2018-11-21T10:11:51.720Z,23.75
2018-11-21T10:12:55.086Z,23.25
2018-11-21T10:13:58.414Z,23.40
2018-11-21T10:15:02.693Z,22.62
2018-11-21T10:16:06.669Z,24.00
2018-11-21T10:17:10.076Z,22.00
2018-11-21T10:18:13.838Z,23.50
2018-11-21T10:19:17.157Z,23.95
2018-11-21T10:20:20.505Z,22.65
2018-11-21T10:21:25.453Z,23.92
2018-11-21T10:22:28.768Z,20.65
2018-11-21T10:23:32.404Z,24.98
2018-11-21T10:24:35.709Z,22.67
2018-11-21T10:25:39.065Z,25.25
2018-11-21T10:26:42.378Z,23.15
2018-11-21T10:27:45.759Z,23.27
2018-11-21T10:28:49.881Z,22.95
2018-11-21T10:29:53.195Z,23.45
2018-11-21T10:30:56.688Z,23.60
2018-11-21T10:31:59.986Z,25.62
2018-11-21T10:33:03.333Z,25.75
2018-11-21T10:34:06.636Z,24.15
2018-11-21T10:35:09.970Z,23.67
2018-11-21T10:36:13.382Z,24.77
2018-11-21T10:37:17.093Z,23.35
2018-11-21T10:38:20.388Z,24.23
2018-11-21T10:39:23.731Z,24.25
2018-11-21T10:40:27.037Z,21.02
2018-11-21T10:41:30.363Z,23.85
2018-11-21T10:42:33.721Z,22.60
2018-11-21T10:43:37.591Z,23.30
2018-11-21T10:44:40.889Z,22.17
2018-11-21T10:45:44.228Z,24.02
2018-11-21T10:46:47.523Z,21.70
2018-11-21T10:47:50.867Z,24.72
2018-11-21T10:48:54.183Z,23.70
2018-11-21T10:49:57.493Z,23.02
2018-11-21T10:51:00.804Z,22.10
2018-11-21T10:52:04.260Z,21.15
2018-11-21T10:53:07.630Z,22.35
2018-11-21T10:54:10.998Z,23.30
2018-11-21T10:55:14.298Z,22.75
2018-11-21T10:56:17.602Z,23.92
2018-11-21T10:57:20.918Z,21.77
2018-11-21T10:58:24.288Z,22.87
2018-11-21T10:59:27.588Z,22.60
2018-11-21T11:00:52.657Z,21.85
2018-11-21T11:02:13.674Z,21.42
2018-11-21T11:03:28.244Z,21.80
2018-11-21T11:04:45.340Z,20.97
2018-11-21T11:06:08.276Z,20.32
2018-11-21T11:07:45.867Z,20.77
2018-11-21T11:09:07.142Z,20.40
2018-11-21T11:10:36.964Z,20.05
2018-11-21T11:11:59.442Z,22.25
2018-11-21T11:13:37.690Z,22.85
2018-11-21T11:14:59.163Z,21.45
2018-11-21T11:16:19.785Z,20.90
2018-11-21T11:17:40.988Z,20.10
2018-11-21T11:18:59.843Z,18.60
2018-11-21T11:20:31.254Z,17.85
2018-11-21T11:21:52.805Z,20.02
2018-11-21T11:23:19.848Z,19.45
2018-11-21T11:24:41.273Z,19.15
2018-11-21T11:26:09.683Z,17.77
2018-11-21T11:27:41.235Z,19.70
2018-11-21T11:29:06.512Z,19.32
2018-11-21T11:30:28.691Z,17.50
2018-11-21T11:31:49.597Z,19.05
2018-11-21T11:32:59.532Z,19.15
2018-11-21T11:34:29.001Z,18.37
2018-11-21T11:35:50.952Z,18.77
2018-11-21T11:37:06.869Z,17.77
2018-11-21T11:38:39.615Z,18.87
2018-11-21T11:40:11.673Z,17.52
2018-11-21T11:41:33.049Z,17.82
2018-11-21T11:42:55.595Z,17.02
2018-11-21T11:44:16.991Z,17.73
2018-11-21T11:45:38.162Z,18.73
2018-11-21T11:47:00.661Z,16.50
2018-11-21T11:48:32.755Z,15.72
2018-11-21T11:50:10.344Z,20.45
2018-11-21T11:51:31.569Z,16.62
2018-11-21T11:52:52.855Z,19.32
2018-11-21T11:54:05.455Z,16.90
2018-11-21T11:55:31.744Z,18.60
2018-11-21T11:56:49.453Z,18.17
2018-11-21T11:58:17.319Z,16.73
2018-11-21T11:59:55.075Z,16.17
2018-11-21T12:01:23.469Z,15.40
2018-11-21T12:02:45.092Z,15.88
2018-11-21T12:04:22.598Z,16.02
2018-11-21T12:05:43.987Z,16.23
2018-11-21T12:07:05.113Z,15.72
2018-11-21T12:08:33.504Z,16.87
2018-11-21T12:09:54.326Z,17.00
2018-11-21T12:11:15.661Z,16.00
2018-11-21T12:12:40.892Z,16.52
2018-11-21T12:14:01.961Z,16.77
2018-11-21T12:15:37.382Z,17.50
2018-11-21T12:16:53.834Z,17.80
2018-11-21T12:18:19.291Z,16.67
2018-11-21T12:19:44.804Z,16.82
2018-11-21T12:21:06.219Z,17.25
2018-11-21T12:22:27.471Z,17.60
2018-11-21T12:23:55.999Z,18.48
2018-11-21T12:25:36.683Z,17.65
2018-11-21T12:26:59.178Z,16.80
2018-11-21T12:28:13.467Z,20.23
2018-11-21T12:29:45.278Z,18.30
2018-11-21T12:31:10.599Z,18.70
2018-11-21T12:32:33.465Z,17.90
2018-11-21T12:33:54.244Z,18.20
2018-11-21T12:35:15.599Z,18.57
2018-11-21T12:36:40.913Z,18.70
2018-11-21T12:38:02.099Z,18.65
2018-11-21T12:39:23.560Z,18.00
2018-11-21T12:41:01.003Z,16.90
2018-11-21T12:42:36.151Z,17.10
2018-11-21T12:44:14.364Z,17.32
2018-11-21T12:45:36.910Z,17.37
2018-11-21T12:47:07.213Z,16.82
2018-11-21T12:48:32.457Z,16.93
2018-11-21T12:49:43.508Z,16.85
2018-11-21T12:51:03.786Z,17.90
2018-11-21T12:52:30.400Z,18.90
2018-11-21T12:53:51.400Z,18.65
2018-11-21T12:55:12.482Z,17.37
2018-11-21T12:56:36.189Z,18.52
2018-11-21T12:58:17.049Z,18.17
2018-11-21T12:59:48.616Z,17.10
2018-11-21T13:01:12.425Z,18.35
2018-11-21T13:02:34.986Z,17.20
2018-11-21T13:03:58.532Z,17.32
2018-11-21T13:05:21.038Z,16.42
2018-11-21T13:06:42.382Z,17.40
2018-11-21T13:08:23.257Z,16.60
2018-11-21T13:09:45.738Z,16.73
2018-11-21T13:11:06.916Z,16.55
2018-11-21T13:12:27.782Z,19.07
2018-11-21T13:13:49.102Z,17.35
2018-11-21T13:15:17.379Z,16.42
2018-11-21T13:16:39.661Z,16.55
2018-11-21T13:18:11.295Z,17.35
2018-11-21T13:19:39.865Z,16.67
2018-11-21T13:20:52.714Z,17.48
2018-11-21T13:22:16.680Z,16.50
2018-11-21T13:23:37.911Z,17.23
2018-11-21T13:25:13.108Z,18.82
2018-11-21T13:26:40.043Z,16.27
2018-11-21T13:28:01.258Z,18.00
2018-11-21T13:29:31.205Z,17.17
2018-11-21T13:30:56.367Z,18.82
2018-11-21T13:32:18.260Z,19.00
2018-11-21T13:33:46.229Z,16.95
2018-11-21T13:35:00.726Z,18.75
2018-11-21T13:36:21.157Z,18.45
2018-11-21T13:37:46.507Z,18.65
2018-11-21T13:39:08.112Z,18.60
2018-11-21T13:40:29.381Z,17.82
2018-11-21T13:41:52.015Z,18.90
2018-11-21T13:43:08.003Z,17.32
2018-11-21T13:44:33.017Z,20.10
2018-11-21T13:46:04.743Z,19.10
2018-11-21T13:47:36.511Z,20.27
2018-11-21T13:48:57.356Z,17.75
2018-11-21T13:50:18.695Z,18.60
2018-11-21T13:51:39.875Z,19.15
2018-11-21T13:53:01.389Z,18.65
2018-11-21T13:54:27.103Z,19.25
2018-11-21T13:55:30.412Z,18.60
2018-11-21T13:56:33.821Z,19.52
2018-11-21T13:57:37.161Z,19.42
2018-11-21T13:58:40.506Z,20.88
2018-11-21T13:59:43.815Z,20.08
2018-11-21T14:00:47.118Z,20.95
2018-11-21T14:01:50.476Z,21.20
2018-11-21T14:02:53.774Z,21.40
2018-11-21T14:03:57.068Z,20.65
2018-11-21T14:05:00.384Z,21.40
2018-11-21T14:06:03.692Z,21.55
2018-11-21T14:07:07.593Z,21.68
2018-11-21T14:08:10.889Z,22.60
2018-11-21T14:09:18.625Z,20.82
2018-11-21T14:10:21.928Z,23.38
2018-11-21T14:11:25.247Z,21.10
2018-11-21T14:12:28.586Z,20.85
2018-11-21T14:13:31.903Z,21.82
2018-11-21T14:14:35.203Z,22.67
2018-11-21T14:15:38.502Z,23.98
2018-11-21T14:16:41.857Z,23.67
2018-11-21T14:17:45.153Z,21.70
2018-11-21T14:18:48.452Z,22.98
2018-11-21T14:19:51.759Z,21.50
2018-11-21T14:20:55.056Z,23.02
2018-11-21T14:21:58.407Z,22.35
2018-11-21T14:23:01.715Z,23.62
2018-11-21T14:24:05.212Z,24.30
2018-11-21T14:25:10.129Z,23.65
2018-11-21T14:26:13.435Z,23.42
2018-11-21T14:27:16.767Z,22.82
2018-11-21T14:28:20.062Z,23.47
2018-11-21T14:29:23.365Z,21.57
2018-11-21T14:30:26.679Z,25.60
2018-11-21T14:31:29.968Z,22.87